< < Back
Terminal Aerodrome Forecast


Current Version              Previous Versions:   1  2  3  4  5  6  7  8  9  

Terminal Aerodrome Forecast

206
FTUS42 KJAX 291734
TAFSSI
TAF
KSSI 291734Z 2918/3018 25008KT P6SM BKN060
     FM292100 20008KT P6SM SCT080 BKN250
     FM301000 23005KT P6SM SCT040 SCT250
     FM301300 25007KT P6SM SCT250=

Latest METAR

611
SAUS70 KWBC 301600 RRE
MTRSSI
METAR KSSI 301553Z AUTO 28006KT 10SM CLR 29/22 A3006 RMK AO2 SLP180
T02940217


USA.gov is the U.S. government's official web portal to all federal, state and local government web resources and services.